Terminal Aerodrome Forecast
Issued by NWS Cleveland, OH

Home | Current Version | Previous Version | Graphics & Text | Print | Product List | Glossary On
Versions: 1 2 3 4 5 6 7 8 9 10 11 12 13 14 15 16 17 18 19 20 21 22 23 24 25 26 27 28 29 30 31 32 33
883
FTUS41 KCLE 301510 AAB
TAFCLE
TAF AMD
KCLE 301510Z 3015/0118 18012KT P6SM OVC011
      TEMPO 3015/3017 OVC009
     FM301900 16008KT P6SM BKN035
     FM302200 23012KT 5SM -SHRA BKN025
     FM010300 26014KT P6SM BKN018=

USA.gov is the U.S. government's official web portal to all federal, state and local government web resources and services.